Codroy, Canada
Current Conditions -  °F | °C
As of 9:00 AM on Saturday 25 Oct 2014 (Local Time) from CWZB Reporting Station
Overcast Overcast  
Wind Chill: 44°   Ceiling: 1600
Heat Index: 49°   Visibility: 9mi
Dew Point: 46°   Wind: 14mph
Humidity: 89%   Direction: 80°E
Pressure: 29.39"   Gusts: 22mph
Location:  47.86°N, 59.36°W
Report Text: CWZB 251100Z AUTO 08012G19KT 9SM OVC016 10/08 A2939 RMK SLP952 PK WND 08020/// T00950078 70100 WSI/SWOB
Loading
Personal Weather Stations






























Interactive Weather Map
Tropical Storm Tracking
New forecast layout! Learn more

10-Day Weather Forecast

Advertisements
Track Severe Weather on mobile